Time;durP1;ratioP1;P1;durP2;ratioP2;P2;SDS_P1;SDS_P2;PMS_P1;PMS_P2;Temp;Humidity;BMP_temperature;BMP_pressure;BME280_temperature;BME280_humidity;BME280_pressure;Samples;Min_cycle;Max_cycle;Signal;HPM_P1;HPM_P2
2022/07/06 00:02:25;;;;;;;5.10;3.40;;;;;;;23.59;42.14;100318.88;117047;1182;22621;-56
2022/07/06 00:04:53;;;;;;;6.00;3.10;;;;;;;23.52;42.08;100318.48;117195;1186;21849;-48
2022/07/06 00:07:21;;;;;;;7.60;3.90;;;;;;;23.48;42.18;100318.39;117043;1188;22321;-48
2022/07/06 00:09:48;;;;;;;7.90;3.50;;;;;;;23.43;42.44;100323.54;117035;1186;24171;-57
2022/07/06 00:12:15;;;;;;;4.70;3.20;;;;;;;23.34;42.48;100323.23;117013;1188;24184;-57
2022/07/06 00:14:42;;;;;;;5.40;3.20;;;;;;;23.29;42.44;100320.14;117038;1188;21846;-56
2022/07/06 00:17:09;;;;;;;8.30;3.10;;;;;;;23.28;42.53;100316.10;117076;1183;23589;-48
2022/07/06 00:19:36;;;;;;;6.30;2.80;;;;;;;23.26;42.60;100314.80;117123;1189;22180;-48
2022/07/06 00:22:03;;;;;;;6.90;3.20;;;;;;;23.21;42.84;100315.85;117182;1186;21845;-57
2022/07/06 00:24:30;;;;;;;5.30;3.30;;;;;;;23.14;42.91;100316.99;117100;1183;22018;-57
2022/07/06 00:26:57;;;;;;;7.20;3.60;;;;;;;23.17;42.97;100318.92;117002;1186;22999;-48
2022/07/06 00:29:24;;;;;;;5.50;3.50;;;;;;;23.14;42.99;100318.80;117069;1186;22927;-48
2022/07/06 00:31:51;;;;;;;13.40;3.60;;;;;;;23.09;43.08;100319.45;117049;1183;23652;-57
2022/07/06 00:34:18;;;;;;;5.20;3.40;;;;;;;23.06;43.07;100314.09;116919;1187;22624;-48
2022/07/06 00:36:45;;;;;;;8.10;3.30;;;;;;;23.04;43.33;100310.83;116982;1188;21849;-57
2022/07/06 00:39:12;;;;;;;6.20;3.90;;;;;;;23.03;43.29;100308.56;117046;1188;23485;-48
2022/07/06 00:41:39;;;;;;;8.20;3.30;;;;;;;23.04;43.47;100306.35;117023;1183;23558;-57
2022/07/06 00:44:07;;;;;;;7.30;3.30;;;;;;;23.04;43.42;100307.64;117058;1182;22950;-57
2022/07/06 00:46:34;;;;;;;7.50;3.30;;;;;;;23.00;43.52;100311.42;117005;1185;23983;-48
2022/07/06 00:49:01;;;;;;;8.10;3.20;;;;;;;22.93;43.52;100307.10;117037;1188;23017;-57
2022/07/06 00:51:30;;;;;;;5.80;3.50;;;;;;;22.87;43.63;100306.05;117030;1182;23640;-57
2022/07/06 00:54:02;;;;;;;8.30;3.40;;;;;;;22.80;43.79;100306.34;117248;1186;22274;-47
2022/07/06 00:56:30;;;;;;;9.40;3.90;;;;;;;22.70;43.98;100306.95;117341;1186;21902;-48
2022/07/06 00:59:00;;;;;;;11.40;3.80;;;;;;;22.61;44.14;100314.52;117317;1186;22633;-48
2022/07/06 01:01:26;;;;;;;6.50;2.80;;;;;;;22.55;44.35;100317.52;117082;1185;21861;-48
2022/07/06 01:03:54;;;;;;;5.70;3.60;;;;;;;22.53;44.40;100321.63;117244;1186;23490;-57
2022/07/06 01:06:21;;;;;;;4.30;2.80;;;;;;;22.52;44.87;100321.86;117017;1182;22840;-48
2022/07/06 01:08:48;;;;;;;7.00;3.20;;;;;;;22.54;44.67;100319.61;117028;1189;22720;-57
2022/07/06 01:11:16;;;;;;;6.10;3.80;;;;;;;22.56;44.79;100321.08;117099;1183;22898;-54
2022/07/06 01:13:43;;;;;;;5.00;3.20;;;;;;;22.53;44.98;100322.52;117134;1186;22812;-57
2022/07/06 01:16:10;;;;;;;4.70;3.30;;;;;;;22.52;44.74;100323.33;116990;1188;23002;-48
2022/07/06 01:18:37;;;;;;;10.10;3.40;;;;;;;22.51;44.69;100325.69;117064;1188;21860;-57
2022/07/06 01:21:09;;;;;;;9.60;3.20;;;;;;;22.52;44.82;100323.48;117111;1183;22914;-56
2022/07/06 01:23:43;;;;;;;10.20;3.10;;;;;;;22.47;44.89;100321.61;117120;1186;22620;-57
2022/07/06 01:26:19;;;;;;;9.00;3.40;;;;;;;22.47;45.05;100321.10;117351;1182;21851;-48
2022/07/06 01:28:47;;;;;;;6.80;3.40;;;;;;;22.51;45.13;100320.52;117192;1186;21854;-57
2022/07/06 01:31:16;;;;;;;10.60;3.60;;;;;;;22.42;45.38;100318.91;117071;1189;21858;-47
2022/07/06 01:33:43;;;;;;;9.70;2.90;;;;;;;22.42;45.39;100317.95;117246;1186;22944;-57
2022/07/06 01:36:10;;;;;;;12.90;4.10;;;;;;;22.42;45.37;100314.77;117080;1186;23557;-57
2022/07/06 01:38:48;;;;;;;8.80;3.40;;;;;;;22.40;45.36;100316.84;117144;1182;22928;-47
2022/07/06 01:41:15;;;;;;;5.30;3.00;;;;;;;22.30;45.33;100319.83;117162;1187;21915;-49
2022/07/06 01:43:42;;;;;;;4.70;3.40;;;;;;;22.19;45.33;100321.17;116980;1185;23005;-57
2022/07/06 01:46:09;;;;;;;7.00;3.50;;;;;;;22.06;45.67;100323.20;117126;1183;21913;-48
2022/07/06 01:48:37;;;;;;;7.10;3.90;;;;;;;21.97;45.85;100324.31;117110;1183;21880;-57
2022/07/06 01:51:04;;;;;;;7.00;3.80;;;;;;;21.95;46.12;100325.14;117169;1185;22937;-48
2022/07/06 01:53:31;;;;;;;10.50;3.90;;;;;;;21.90;46.35;100322.60;117111;1187;22680;-57
2022/07/06 01:55:58;;;;;;;10.40;4.80;;;;;;;21.87;46.45;100327.79;117019;1185;23598;-58
2022/07/06 01:58:25;;;;;;;10.70;3.40;;;;;;;21.82;46.44;100330.02;117064;1185;21880;-48
2022/07/06 02:00:52;;;;;;;16.00;4.50;;;;;;;21.73;46.73;100328.25;116975;1186;22745;-57
2022/07/06 02:03:19;;;;;;;8.70;3.80;;;;;;;21.64;46.79;100325.38;117143;1185;21973;-56
2022/07/06 02:05:46;;;;;;;7.60;3.70;;;;;;;21.69;46.71;100326.02;117211;1186;21852;-47
2022/07/06 02:08:13;;;;;;;6.10;3.80;;;;;;;21.68;46.72;100325.66;117046;1186;21850;-56
2022/07/06 02:10:40;;;;;;;7.30;3.40;;;;;;;21.65;47.00;100329.25;117006;1186;23557;-47
2022/07/06 02:13:07;;;;;;;10.60;4.20;;;;;;;21.61;47.10;100327.71;117116;1185;21895;-47
2022/07/06 02:15:34;;;;;;;6.60;4.00;;;;;;;21.58;47.09;100323.61;117075;1182;22648;-47
2022/07/06 02:18:01;;;;;;;7.80;4.00;;;;;;;21.58;47.14;100325.92;117156;1186;22084;-56
2022/07/06 02:20:28;;;;;;;16.20;4.70;;;;;;;21.59;47.29;100324.42;117253;1186;23452;-56
2022/07/06 02:22:55;;;;;;;15.30;3.90;;;;;;;21.57;47.11;100319.69;117189;1182;22621;-47
2022/07/06 02:25:22;;;;;;;12.60;3.80;;;;;;;21.60;46.86;100317.76;116973;1183;22937;-47
2022/07/06 02:27:49;;;;;;;11.60;4.50;;;;;;;21.50;46.93;100313.71;117146;1185;21857;-56
2022/07/06 02:30:16;;;;;;;7.50;3.60;;;;;;;21.40;47.25;100318.75;117021;1182;23537;-56
2022/07/06 02:32:43;;;;;;;7.40;3.80;;;;;;;21.32;47.45;100319.92;116949;1188;21885;-47
2022/07/06 02:35:10;;;;;;;5.90;3.70;;;;;;;21.30;47.43;100317.89;117158;1186;21871;-56
2022/07/06 02:37:37;;;;;;;5.90;3.60;;;;;;;21.33;47.66;100315.95;117039;1185;21873;-47
2022/07/06 02:40:05;;;;;;;9.40;4.10;;;;;;;21.39;47.76;100315.59;117002;1182;23689;-57
2022/07/06 02:42:32;;;;;;;7.00;3.30;;;;;;;21.48;47.80;100315.41;117160;1186;21845;-47
2022/07/06 02:44:59;;;;;;;6.10;3.80;;;;;;;21.54;47.71;100313.98;117081;1186;21859;-55
2022/07/06 02:47:28;;;;;;;6.70;4.30;;;;;;;21.58;47.66;100313.40;117178;1186;21844;-56
2022/07/06 02:49:55;;;;;;;21.00;5.40;;;;;;;21.58;47.62;100308.22;117195;1185;22036;-56
2022/07/06 02:52:22;;;;;;;18.00;4.60;;;;;;;21.54;47.62;100303.30;116823;1189;21866;-56
2022/07/06 02:54:49;;;;;;;9.20;4.10;;;;;;;21.48;47.53;100303.60;117090;1185;21854;-47
2022/07/06 02:57:16;;;;;;;10.00;4.30;;;;;;;21.45;47.62;100299.14;117205;1186;21853;-56
2022/07/06 02:59:44;;;;;;;5.10;3.50;;;;;;;21.44;47.74;100301.55;116961;1189;23087;-47
2022/07/06 03:02:11;;;;;;;9.40;4.70;;;;;;;21.45;47.86;100299.91;117153;1186;21860;-56
2022/07/06 03:04:38;;;;;;;7.80;4.40;;;;;;;21.47;47.97;100299.39;117150;1182;23551;-47
2022/07/06 03:07:05;;;;;;;16.90;5.80;;;;;;;21.50;48.11;100298.17;117072;1183;23551;-47
2022/07/06 03:09:32;;;;;;;20.20;4.80;;;;;;;21.55;48.37;100296.83;117301;1186;23576;-47
2022/07/06 03:11:59;;;;;;;8.90;4.80;;;;;;;21.59;48.40;100293.73;117054;1187;21865;-47
2022/07/06 03:14:26;;;;;;;8.90;4.20;;;;;;;21.63;48.42;100295.67;117043;1183;22628;-57
2022/07/06 03:16:53;;;;;;;11.40;4.40;;;;;;;21.67;48.47;100298.41;117123;1186;23647;-47
2022/07/06 03:19:21;;;;;;;9.30;4.60;;;;;;;21.73;48.66;100300.55;117191;1186;22972;-56
2022/07/06 03:21:48;;;;;;;11.90;4.90;;;;;;;21.80;48.69;100297.11;117074;1186;21855;-48
2022/07/06 03:24:16;;;;;;;8.90;4.40;;;;;;;21.89;48.84;100299.27;117137;1185;22837;-56
2022/07/06 03:26:43;;;;;;;8.60;4.30;;;;;;;22.00;48.99;100302.03;116844;1189;21846;-47
2022/07/06 03:29:10;;;;;;;11.10;4.90;;;;;;;22.10;49.03;100304.77;117047;1186;22625;-56
2022/07/06 03:31:37;;;;;;;18.50;5.00;;;;;;;22.26;49.14;100306.80;116998;1186;23567;-57
2022/07/06 03:34:04;;;;;;;13.60;4.40;;;;;;;22.44;49.16;100302.67;117132;1186;23476;-48
2022/07/06 03:36:31;;;;;;;11.00;5.00;;;;;;;22.61;49.01;100302.54;117052;1183;23641;-57
2022/07/06 03:39:05;;;;;;;9.80;4.70;;;;;;;22.78;49.04;100298.76;117019;1185;23570;-48
2022/07/06 03:41:32;;;;;;;8.40;4.10;;;;;;;22.88;48.92;100297.02;117104;1184;21858;-48
2022/07/06 03:43:59;;;;;;;8.30;4.20;;;;;;;23.00;48.89;100300.20;117039;1183;22928;-57
2022/07/06 03:46:27;;;;;;;11.40;4.80;;;;;;;23.12;49.12;100301.73;117051;1189;22331;-58
2022/07/06 03:48:54;;;;;;;18.40;5.90;;;;;;;23.27;49.17;100307.60;116983;1186;21862;-57
2022/07/06 03:51:21;;;;;;;17.20;5.90;;;;;;;23.45;49.03;100307.14;117098;1188;21879;-57
2022/07/06 03:53:48;;;;;;;18.30;5.20;;;;;;;23.63;48.94;100301.05;116905;1182;21956;-58
2022/07/06 03:56:28;;;;;;;13.90;4.80;;;;;;;23.82;48.70;100297.45;117042;1182;21892;-48
2022/07/06 03:58:59;;;;;;;23.80;4.90;;;;;;;24.04;48.47;100300.39;117011;1186;23724;-48
2022/07/06 04:01:26;;;;;;;13.60;4.50;;;;;;;24.26;48.18;100299.39;117043;1188;21887;-48
2022/07/06 04:03:53;;;;;;;12.80;4.40;;;;;;;24.43;47.82;100300.33;116985;1188;22332;-48
2022/07/06 04:06:21;;;;;;;15.70;4.00;;;;;;;24.59;47.55;100297.80;116884;1186;21851;-49
2022/07/06 04:08:48;;;;;;;10.40;4.10;;;;;;;24.76;47.43;100296.72;117099;1187;21854;-57
2022/07/06 04:11:14;;;;;;;12.00;4.00;;;;;;;24.96;47.28;100294.05;117023;1186;23553;-57
2022/07/06 04:13:42;;;;;;;11.30;3.40;;;;;;;25.15;46.95;100294.23;117061;1188;22957;-49
2022/07/06 04:16:09;;;;;;;15.60;4.40;;;;;;;25.36;46.81;100291.83;117069;1187;22931;-49
2022/07/06 04:18:36;;;;;;;12.50;3.90;;;;;;;25.59;46.60;100288.63;117059;1187;21867;-48
2022/07/06 04:21:03;;;;;;;7.20;3.70;;;;;;;25.79;46.47;100283.10;117073;1186;21853;-49
2022/07/06 04:23:30;;;;;;;7.40;3.40;;;;;;;26.04;46.61;100281.74;117162;1182;23472;-49
2022/07/06 04:25:57;;;;;;;7.40;3.90;;;;;;;26.31;46.49;100278.57;117104;1182;22622;-49
2022/07/06 04:28:24;;;;;;;9.80;4.00;;;;;;;26.54;46.26;100276.67;117029;1189;22992;-57
2022/07/06 04:30:52;;;;;;;11.90;3.70;;;;;;;26.74;45.88;100279.44;117003;1187;21886;-49
2022/07/06 04:33:19;;;;;;;6.50;3.20;;;;;;;26.92;45.73;100275.42;116805;1185;23862;-57
2022/07/06 04:35:46;;;;;;;13.20;3.70;;;;;;;27.11;45.48;100268.09;117118;1182;22725;-49
2022/07/06 04:38:13;;;;;;;7.30;3.90;;;;;;;27.32;45.41;100266.52;117139;1185;22642;-49
2022/07/06 04:40:40;;;;;;;8.50;3.40;;;;;;;27.53;45.21;100264.65;117144;1185;23322;-57
2022/07/06 04:43:06;;;;;;;9.30;3.30;;;;;;;27.70;45.07;100264.81;117081;1182;22919;-56
2022/07/06 04:45:33;;;;;;;7.30;3.00;;;;;;;27.97;44.59;100262.28;116979;1183;21862;-49
2022/07/06 04:48:00;;;;;;;5.90;3.10;;;;;;;28.19;44.40;100265.24;119041;1187;22272;-57
2022/07/06 04:50:27;;;;;;;6.10;3.50;;;;;;;28.40;44.27;100264.31;119283;1183;21854;-50
2022/07/06 04:52:54;;;;;;;5.60;3.40;;;;;;;28.62;43.89;100267.21;119173;1183;22625;-58
2022/07/06 04:55:22;;;;;;;5.90;3.60;;;;;;;28.89;43.94;100270.64;117240;1182;22622;-57
2022/07/06 04:57:53;;;;;;;6.50;3.40;;;;;;;29.11;43.20;100266.44;117288;1185;21865;-49
2022/07/06 05:00:21;;;;;;;6.70;3.20;;;;;;;29.35;42.56;100261.48;117169;1182;21851;-49
2022/07/06 05:02:48;;;;;;;5.40;3.30;;;;;;;29.61;42.57;100262.37;117072;1188;22841;-49
2022/07/06 05:05:15;;;;;;;9.60;3.60;;;;;;;29.85;42.33;100260.65;117102;1183;21853;-56
2022/07/06 05:07:42;;;;;;;5.20;3.20;;;;;;;30.11;42.11;100259.46;117026;1189;21871;-57
2022/07/06 05:10:10;;;;;;;4.50;3.30;;;;;;;30.39;41.73;100259.83;117379;1186;22625;-49
2022/07/06 05:12:37;;;;;;;4.30;2.80;;;;;;;30.66;41.43;100258.45;117105;1183;22999;-56
2022/07/06 05:15:04;;;;;;;6.50;3.40;;;;;;;30.90;40.79;100259.70;116914;1188;23637;-57
2022/07/06 05:17:31;;;;;;;4.10;2.80;;;;;;;31.10;40.53;100256.80;117131;1189;22832;-50
2022/07/06 05:19:58;;;;;;;4.70;2.90;;;;;;;31.26;40.33;100255.71;117156;1180;22750;-56
2022/07/06 05:22:26;;;;;;;5.60;2.80;;;;;;;31.44;40.06;100260.47;117074;1182;21858;-49
2022/07/06 05:24:53;;;;;;;9.50;3.40;;;;;;;31.69;39.63;100260.64;117212;1186;22622;-49
2022/07/06 05:27:20;;;;;;;4.50;2.70;;;;;;;31.87;39.22;100261.66;117205;1182;22827;-56
2022/07/06 05:29:47;;;;;;;4.20;2.60;;;;;;;32.10;39.09;100262.54;117097;1187;22944;-57
2022/07/06 05:32:14;;;;;;;5.60;2.80;;;;;;;32.36;38.12;100262.05;117224;1184;22738;-56
2022/07/06 05:34:43;;;;;;;5.90;2.90;;;;;;;32.53;36.58;100260.76;117148;1185;24243;-49
2022/07/06 05:37:12;;;;;;;4.00;2.90;;;;;;;32.69;37.50;100258.67;117125;1185;21889;-48
2022/07/06 05:39:43;;;;;;;9.60;2.70;;;;;;;32.90;37.58;100262.09;117082;1185;21857;-49
2022/07/06 05:42:10;;;;;;;4.20;2.80;;;;;;;33.08;37.23;100258.27;117075;1184;21908;-56
2022/07/06 05:44:37;;;;;;;5.10;3.00;;;;;;;33.28;36.94;100254.86;117111;1185;22332;-49
2022/07/06 05:52:35;;;;;;;7.60;2.80;;;;;;;33.83;36.27;100250.88;117258;1182;22841;-56
2022/07/06 05:55:03;;;;;;;6.40;2.90;;;;;;;33.93;36.00;100251.47;117091;1185;21841;-49
2022/07/06 05:57:30;;;;;;;4.60;2.60;;;;;;;34.11;35.67;100248.75;117148;1183;22620;-56
2022/07/06 05:59:57;;;;;;;4.80;2.80;;;;;;;34.29;35.26;100245.52;117094;1186;21956;-57
2022/07/06 06:02:24;;;;;;;3.80;2.50;;;;;;;34.47;35.27;100244.36;117118;1185;23573;-49
2022/07/06 06:04:52;;;;;;;10.20;2.80;;;;;;;34.70;35.15;100241.49;117142;1185;21851;-49
2022/07/06 06:07:19;;;;;;;4.80;2.80;;;;;;;34.89;34.53;100240.03;117068;1188;21854;-57
2022/07/06 06:09:46;;;;;;;4.40;3.00;;;;;;;35.02;34.05;100241.89;117075;1185;21851;-57
2022/07/06 06:12:13;;;;;;;6.30;3.00;;;;;;;35.10;33.35;100237.20;117228;1183;23553;-50
2022/07/06 06:14:40;;;;;;;4.90;2.30;;;;;;;35.13;33.68;100233.20;117165;1186;21996;-57
2022/07/06 06:17:09;;;;;;;5.80;2.30;;;;;;;35.43;33.06;100237.54;116968;1187;23701;-49
2022/07/06 06:19:36;;;;;;;4.40;2.70;;;;;;;35.61;32.46;100232.69;117100;1183;23568;-57
2022/07/06 06:22:04;;;;;;;8.80;2.70;;;;;;;35.75;32.88;100232.91;117097;1185;21855;-57
2022/07/06 06:24:31;;;;;;;4.70;2.70;;;;;;;36.00;33.07;100232.46;117195;1186;22955;-57
2022/07/06 06:26:59;;;;;;;4.90;2.80;;;;;;;36.24;32.17;100231.90;117033;1185;21873;-57
2022/07/06 06:29:27;;;;;;;9.00;2.40;;;;;;;36.43;31.53;100226.70;117191;1185;22919;-57
2022/07/06 06:31:54;;;;;;;5.60;2.40;;;;;;;36.55;30.99;100221.23;117050;1188;22754;-50
2022/07/06 06:34:22;;;;;;;6.30;2.50;;;;;;;36.56;30.72;100217.63;117055;1185;22791;-57
2022/07/06 06:36:49;;;;;;;6.80;2.80;;;;;;;36.54;29.24;100218.95;117152;1186;22626;-49
2022/07/06 06:39:16;;;;;;;4.70;2.30;;;;;;;36.57;29.71;100216.86;117107;1185;21870;-57
2022/07/06 06:41:43;;;;;;;7.60;2.50;;;;;;;36.54;28.72;100220.91;117170;1186;22697;-57
2022/07/06 06:44:14;;;;;;;3.60;2.10;;;;;;;36.63;29.66;100216.86;117043;1186;22645;-57
2022/07/06 06:46:42;;;;;;;4.20;2.40;;;;;;;36.90;29.82;100216.39;116943;1188;22954;-49
2022/07/06 06:49:10;;;;;;;3.70;2.50;;;;;;;37.25;28.81;100218.05;117055;1185;21895;-50
2022/07/06 06:51:38;;;;;;;4.90;2.30;;;;;;;37.48;28.97;100217.14;117155;1188;21855;-49
2022/07/06 06:54:05;;;;;;;4.90;2.20;;;;;;;37.73;27.73;100213.88;117112;1185;21857;-49
2022/07/06 06:56:32;;;;;;;4.60;2.30;;;;;;;37.99;28.24;100206.30;117115;1182;22632;-50
2022/07/06 06:59:01;;;;;;;4.40;2.20;;;;;;;38.25;27.94;100205.15;117127;1185;21863;-50
2022/07/06 07:01:44;;;;;;;6.60;2.50;;;;;;;38.51;26.78;100202.17;117069;1185;22954;-49
2022/07/06 07:04:11;;;;;;;5.50;3.00;;;;;;;38.58;26.90;100202.39;116999;1185;21883;-50
2022/07/06 07:06:39;;;;;;;4.60;1.80;;;;;;;38.68;27.22;100204.14;117136;1186;22458;-58
2022/07/06 07:09:06;;;;;;;3.20;1.80;;;;;;;38.80;24.70;100199.05;117311;1183;21881;-50
2022/07/06 07:11:34;;;;;;;6.50;2.00;;;;;;;38.78;25.14;100198.15;117229;1186;21844;-49
2022/07/06 07:14:01;;;;;;;3.00;1.70;;;;;;;38.84;24.57;100202.61;117107;1186;24072;-58
2022/07/06 07:16:31;;;;;;;2.30;1.70;;;;;;;38.90;24.58;100201.96;117187;1186;24231;-50
2022/07/06 07:19:14;;;;;;;2.00;1.60;;;;;;;38.92;23.88;100201.11;117248;1189;23015;-58
2022/07/06 07:21:41;;;;;;;5.10;1.60;;;;;;;39.04;23.35;100202.46;117079;1183;24175;-58
2022/07/06 07:24:08;;;;;;;2.90;1.90;;;;;;;39.13;23.49;100202.80;117032;1186;22660;-58
2022/07/06 07:26:36;;;;;;;2.50;1.80;;;;;;;39.18;23.38;100198.62;117039;1187;22430;-50
2022/07/06 07:29:03;;;;;;;5.50;2.30;;;;;;;39.29;23.29;100200.65;117158;1188;24295;-51
2022/07/06 07:31:31;;;;;;;4.10;2.10;;;;;;;39.50;22.88;100200.25;117121;1183;23554;-60
2022/07/06 07:33:58;;;;;;;3.80;2.00;;;;;;;39.66;23.13;100203.52;117014;1187;21880;-50
2022/07/06 07:36:25;;;;;;;4.30;2.10;;;;;;;39.79;23.34;100203.04;116916;1189;21867;-57
2022/07/06 07:38:52;;;;;;;2.70;2.10;;;;;;;40.13;23.63;100199.16;117012;1186;23695;-59
2022/07/06 07:41:19;;;;;;;4.40;2.40;;;;;;;40.54;23.17;100198.44;117425;1186;22624;-51
2022/07/06 07:43:46;;;;;;;5.30;2.10;;;;;;;40.90;22.47;100197.88;117175;1185;23705;-58
2022/07/06 07:46:14;;;;;;;3.90;2.00;;;;;;;41.16;22.34;100196.10;116885;1186;21883;-58
2022/07/06 07:48:41;;;;;;;5.10;2.10;;;;;;;41.40;22.04;100195.38;116938;1187;21861;-50
2022/07/06 07:51:08;;;;;;;6.40;2.30;;;;;;;41.57;20.48;100196.15;117013;1183;21855;-51
2022/07/06 07:53:35;;;;;;;2.60;2.00;;;;;;;41.61;21.08;100199.35;116937;1187;21907;-58
2022/07/06 07:56:03;;;;;;;3.60;2.00;;;;;;;41.65;20.79;100199.31;117013;1184;21876;-51
2022/07/06 07:58:30;;;;;;;3.10;2.20;;;;;;;41.62;19.40;100197.33;116807;1187;22993;-58
2022/07/06 08:00:58;;;;;;;2.70;1.80;;;;;;;41.22;19.34;100199.83;117099;1183;22813;-59
2022/07/06 08:03:25;;;;;;;3.10;2.20;;;;;;;40.89;19.64;100199.11;117007;1188;22360;-61
2022/07/06 08:05:52;;;;;;;4.40;2.30;;;;;;;40.67;20.02;100195.77;117021;1185;22034;-59
2022/07/06 08:08:20;;;;;;;8.10;2.60;;;;;;;40.56;19.67;100199.80;117110;1182;23599;-51
2022/07/06 08:10:47;;;;;;;2.90;2.40;;;;;;;40.48;18.74;100200.21;117154;1186;21981;-58
2022/07/06 08:13:34;;;;;;;6.00;2.70;;;;;;;40.44;19.02;100197.56;117025;1189;22988;-51
2022/07/06 08:16:02;;;;;;;11.20;3.10;;;;;;;40.47;19.26;100201.28;117100;1186;21856;-51
2022/07/06 08:18:30;;;;;;;2.80;2.30;;;;;;;40.48;18.68;100199.41;117320;1186;21879;-50
2022/07/06 08:21:01;;;;;;;3.80;2.20;;;;;;;40.38;18.54;100202.02;117232;1187;22931;-52
2022/07/06 08:23:49;;;;;;;6.20;3.40;;;;;;;40.24;19.07;100198.82;116995;1183;21858;-59
2022/07/06 08:26:16;;;;;;;7.00;2.40;;;;;;;40.32;19.56;100198.11;117262;1186;21845;-52
2022/07/06 08:28:44;;;;;;;3.70;2.50;;;;;;;40.53;19.50;100197.27;117213;1188;21854;-51
2022/07/06 08:31:12;;;;;;;3.70;2.30;;;;;;;40.87;19.14;100196.36;117307;1186;22320;-59
2022/07/06 08:34:01;;;;;;;;;;;;;;;41.12;18.82;100197.41;117322;1187;23829;-58
2022/07/06 08:36:28;;;;;;;3.50;2.30;;;;;;;41.32;19.20;100198.55;117228;1181;23541;-51
2022/07/06 08:38:56;;;;;;;5.30;2.30;;;;;;;41.60;17.87;100198.84;117055;1186;21970;-58
2022/07/06 08:41:26;;;;;;;3.70;2.40;;;;;;;41.81;18.44;100198.69;116991;1189;23578;-58
2022/07/06 08:43:55;;;;;;;5.20;2.50;;;;;;;42.06;18.54;100200.65;117171;1186;21866;-51
2022/07/06 08:46:26;;;;;;;4.10;2.50;;;;;;;42.43;18.66;100193.42;117241;1186;21858;-59
2022/07/06 08:48:53;;;;;;;5.60;2.70;;;;;;;42.68;18.01;100189.73;116982;1187;22082;-59
2022/07/06 08:51:20;;;;;;;4.00;2.60;;;;;;;42.66;18.05;100190.66;117054;1182;21859;-52
2022/07/06 08:53:55;;;;;;;3.50;2.50;;;;;;;42.53;17.58;100191.16;117166;1186;21855;-52
2022/07/06 08:56:23;;;;;;;4.60;2.20;;;;;;;42.43;17.47;100190.66;117295;1183;22794;-59
2022/07/06 08:58:51;;;;;;;5.00;2.30;;;;;;;42.41;17.83;100188.19;116878;1189;21854;-52
2022/07/06 09:01:18;;;;;;;20.60;3.00;;;;;;;42.39;17.79;100184.19;116992;1187;21860;-59
2022/07/06 09:03:46;;;;;;;5.10;2.50;;;;;;;42.42;17.75;100182.69;116858;1186;23600;-59
2022/07/06 09:06:15;;;;;;;6.70;2.70;;;;;;;42.33;17.57;100184.98;116985;1187;23906;-52
2022/07/06 09:08:43;;;;;;;4.90;2.80;;;;;;;42.33;17.17;100184.36;117188;1187;21852;-59
2022/07/06 09:11:11;;;;;;;2.90;2.40;;;;;;;42.35;17.62;100187.02;118113;1185;21851;-59
2022/07/06 09:13:38;;;;;;;6.90;2.70;;;;;;;42.42;17.86;100185.43;117155;1183;22622;-52
2022/07/06 09:16:12;;;;;;;6.60;2.80;;;;;;;42.76;17.89;100179.70;117347;1186;21863;-53
2022/07/06 09:19:00;;;;;;;3.10;2.40;;;;;;;43.13;17.27;100172.98;117046;1185;22716;-58
2022/07/06 09:21:32;;;;;;;4.80;2.50;;;;;;;43.26;17.29;100174.07;117087;1185;21857;-52
2022/07/06 09:24:07;;;;;;;3.40;2.40;;;;;;;43.42;16.70;100174.28;117184;1186;21867;-59
2022/07/06 09:26:34;;;;;;;4.90;2.60;;;;;;;43.48;15.87;100168.21;117300;1183;22927;-58
2022/07/06 09:29:01;;;;;;;4.70;2.90;;;;;;;43.32;16.37;100166.07;117170;1183;23650;-58
2022/07/06 09:31:29;;;;;;;3.70;2.40;;;;;;;43.58;16.73;100163.06;117179;1182;23451;-59
2022/07/06 09:34:07;;;;;;;4.60;2.40;;;;;;;43.97;16.14;100161.23;117005;1188;21859;-52
2022/07/06 09:36:45;;;;;;;5.80;2.20;;;;;;;44.21;16.29;100159.30;117265;1185;21861;-51
2022/07/06 09:39:26;;;;;;;4.90;2.60;;;;;;;44.24;16.08;100157.91;117262;1182;22924;-53
2022/07/06 09:41:54;;;;;;;6.50;2.90;;;;;;;44.22;15.46;100153.55;117086;1186;21917;-58
2022/07/06 09:44:26;;;;;;;4.00;3.00;;;;;;;44.16;15.18;100159.60;117314;1185;21860;-58
2022/07/06 09:47:01;;;;;;;13.40;3.60;;;;;;;44.05;15.36;100156.27;117281;1186;22648;-58
2022/07/06 09:49:30;;;;;;;5.30;2.70;;;;;;;43.87;15.29;100157.52;117054;1182;21924;-59
2022/07/06 09:51:58;;;;;;;4.00;2.80;;;;;;;43.62;14.95;100158.37;117269;1185;22619;-58
2022/07/06 09:54:25;;;;;;;5.70;2.60;;;;;;;43.42;14.92;100160.00;117294;1182;22809;-58
2022/07/06 09:56:53;;;;;;;4.40;2.50;;;;;;;43.17;15.40;100157.02;117093;1183;21885;-58
2022/07/06 09:59:22;;;;;;;3.60;2.50;;;;;;;43.09;15.66;100152.29;117247;1186;21854;-50
2022/07/06 10:01:57;;;;;;;3.50;2.60;;;;;;;43.12;15.81;100152.52;117248;1182;22927;-58
2022/07/06 10:04:25;;;;;;;5.10;2.80;;;;;;;43.06;15.31;100148.08;117274;1186;21844;-58
2022/07/06 10:06:53;;;;;;;6.00;2.80;;;;;;;43.10;15.58;100140.58;117050;1188;23439;-59
2022/07/06 10:09:21;;;;;;;5.90;3.00;;;;;;;43.37;15.73;100143.48;117151;1183;23491;-58
2022/07/06 10:11:56;;;;;;;4.60;3.10;;;;;;;43.67;15.39;100141.59;117161;1185;22948;-58
2022/07/06 10:14:25;;;;;;;3.40;2.70;;;;;;;43.73;14.80;100137.14;116977;1186;21858;-51
2022/07/06 10:16:52;;;;;;;5.30;2.70;;;;;;;43.70;15.01;100139.06;119304;1183;21806;-58
2022/07/06 10:19:21;;;;;;;4.60;2.90;;;;;;;43.74;15.29;100133.77;119269;1186;22336;-59
2022/07/06 10:21:48;;;;;;;5.20;2.70;;;;;;;43.82;14.83;100135.58;118667;1182;22925;-59
2022/07/06 10:24:17;;;;;;;5.40;2.80;;;;;;;43.76;14.87;100140.38;117476;1186;21848;-58
2022/07/06 10:26:44;;;;;;;8.20;2.90;;;;;;;43.76;14.96;100132.95;117112;1185;21866;-58
2022/07/06 10:29:11;;;;;;;6.40;3.20;;;;;;;43.83;14.50;100130.90;117074;1185;23566;-58
2022/07/06 10:31:40;;;;;;;7.20;2.90;;;;;;;43.74;14.43;100130.42;117290;1185;22627;-51
2022/07/06 10:34:10;;;;;;;6.20;3.00;;;;;;;43.75;14.94;100134.05;117264;1186;22357;-59
2022/07/06 10:36:41;;;;;;;;;;;;;;;43.88;14.88;100135.65;117028;1182;22934;-58
2022/07/06 10:41:55;;;;;;;3.90;2.70;;;;;;;43.97;14.98;100131.84;117199;1182;22021;-51
2022/07/06 10:44:24;;;;;;;4.40;2.70;;;;;;;44.22;14.89;100129.16;117108;1183;21877;-51
2022/07/06 10:46:53;;;;;;;5.20;2.80;;;;;;;44.65;15.21;100126.66;117190;1185;23673;-51
2022/07/06 10:49:21;;;;;;;5.90;2.50;;;;;;;45.21;15.28;100123.19;117203;1186;21940;-50
2022/07/06 10:52:09;;;;;;;4.90;2.90;;;;;;;45.32;14.56;100123.64;117008;1182;22105;-51
2022/07/06 10:54:40;;;;;;;8.80;3.20;;;;;;;45.08;14.92;100123.23;116971;1186;22402;-51
2022/07/06 10:57:09;;;;;;;5.90;3.20;;;;;;;44.89;14.91;100119.83;117163;1183;23576;-53
2022/07/06 10:59:37;;;;;;;4.50;2.80;;;;;;;44.67;14.76;100124.64;117113;1182;21895;-52
2022/07/06 11:02:21;;;;;;;4.90;2.80;;;;;;;44.29;14.76;100125.04;118738;1182;23360;-51
2022/07/06 11:04:49;;;;;;;4.80;2.80;;;;;;;43.58;14.90;100120.92;119239;1186;21791;-64
2022/07/06 11:07:18;;;;;;;6.70;2.80;;;;;;;42.94;15.37;100112.25;117655;1182;23554;-51
2022/07/06 11:09:59;;;;;;;4.60;2.90;;;;;;;42.71;15.76;100109.06;118691;1186;21858;-59
2022/07/06 11:12:27;;;;;;;4.50;2.70;;;;;;;42.82;16.01;100099.29;117124;1187;22110;-58
2022/07/06 11:14:54;;;;;;;4.80;3.00;;;;;;;43.12;15.95;100091.41;116946;1183;22651;-52
2022/07/06 11:17:23;;;;;;;9.80;3.20;;;;;;;43.37;15.67;100091.08;116876;1186;22928;-58
2022/07/06 11:19:57;;;;;;;3.50;2.60;;;;;;;43.39;15.52;100090.91;117184;1183;23451;-58
2022/07/06 11:22:24;;;;;;;3.80;2.60;;;;;;;43.03;15.13;100087.59;117265;1182;21916;-52
2022/07/06 11:24:55;;;;;;;6.00;3.20;;;;;;;42.44;15.48;100085.11;117364;1186;21857;-52
2022/07/06 11:27:23;;;;;;;6.10;2.70;;;;;;;42.17;15.84;100083.20;117325;1182;22748;-59
2022/07/06 11:29:50;;;;;;;4.30;2.90;;;;;;;42.20;15.98;100081.40;117188;1182;22924;-58
2022/07/06 11:32:23;;;;;;;4.70;3.30;;;;;;;42.28;15.55;100081.71;117249;1183;23049;-58